Etusivu
METAR-TAF:

METAR-TAF

Lentoasemat :

Gamvik, Norja

Leveyspiiri: 71-02N, Pituuspiiri: 027-50E, korkeus merenpinnasta: 1 m

Tämänhetkinen sää

Tämä raportti tehtiin 15 tuntia ja 37 minuuttia sitten, kello 15.50 UTC
Tuuli 14 kn lännestä
Lämpötila 6°C
Kosteus 87%
Ilmanpaine 1019 hPa
Näkyvyys: 8000 m
Hajanaisia pilviä 600 ft:n korkeudessa
Hajonneita pilviä 1200 ft:n korkeudessa
heikkoja vesikuuroja

METAR: ENMH 291550Z 26014KT 8000 -SHRA SCT006 BKN012 06/04 Q1019

Aika: 09:27 (07:27 UTC)


TAF: puuttuu

Säähavainnot ja -ennusteet yli 4000 lentoasemalta (METAR- ja TAF-raportit).

Käytössä olevat sääasemat on merkitty karttaan keltaisilla ja punaisilla pisteillä.

Aseta hiiri pisteen päälle nähdäksesi sääaseman nimen.

Klikkaa sitten nähdäksesi säähavainnot ja -ennusteet.

Kartan vaihtaminen: klikkaa mustalla rastilla varustettuja vihreitä pisteitä, niin voit zoomata sisään; viivalla varustettua vihreää pistettä, niin voit zoomata ulos tai vihreitä nuolia, niin pääset viereisille kartoille.


METAR-TAF: